createdAt,value
2018-06-03T00:02:06.320Z,4.93
2018-06-03T00:04:34.915Z,5.20
2018-06-03T00:07:03.524Z,5.33
2018-06-03T00:09:32.127Z,5.27
2018-06-03T00:12:00.736Z,4.80
2018-06-03T00:14:29.319Z,4.90
2018-06-03T00:16:57.889Z,4.73
2018-06-03T00:19:26.220Z,4.67
2018-06-03T00:21:54.820Z,5.53
2018-06-03T00:24:23.440Z,4.87
2018-06-03T00:26:52.023Z,4.90
2018-06-03T00:29:20.969Z,4.90
2018-06-03T00:31:49.544Z,5.50
2018-06-03T00:34:18.749Z,5.13
2018-06-03T00:36:48.140Z,4.97
2018-06-03T00:39:16.723Z,5.07
2018-06-03T00:41:45.340Z,5.53
2018-06-03T00:44:13.943Z,4.90
2018-06-03T00:46:42.519Z,5.37
2018-06-03T00:49:11.111Z,5.60
2018-06-03T00:51:39.739Z,5.33
2018-06-03T00:54:08.332Z,4.93
2018-06-03T00:56:48.075Z,5.23
2018-06-03T00:59:16.680Z,5.17
2018-06-03T01:01:45.276Z,5.00
2018-06-03T01:04:13.859Z,5.63
2018-06-03T01:06:42.493Z,5.53
2018-06-03T01:09:11.088Z,5.00
2018-06-03T01:11:39.688Z,5.33
2018-06-03T01:14:10.800Z,5.10
2018-06-03T01:16:39.667Z,4.80
2018-06-03T01:19:08.264Z,4.93
2018-06-03T01:21:36.849Z,4.80
2018-06-03T01:24:05.452Z,5.20
2018-06-03T01:26:34.036Z,5.23
2018-06-03T01:29:02.615Z,4.83
2018-06-03T01:31:31.200Z,4.90
2018-06-03T01:33:59.781Z,5.10
2018-06-03T01:36:28.394Z,4.47
2018-06-03T01:38:56.955Z,4.87
2018-06-03T01:41:25.532Z,5.47
2018-06-03T01:43:54.138Z,5.73
2018-06-03T01:46:22.467Z,5.00
2018-06-03T01:48:51.033Z,5.87
2018-06-03T01:51:20.565Z,5.70
2018-06-03T01:53:49.168Z,5.40
2018-06-03T01:56:17.531Z,5.83
2018-06-03T01:58:46.118Z,5.40
2018-06-03T02:01:14.693Z,5.37
2018-06-03T02:03:43.261Z,5.73
2018-06-03T02:06:11.848Z,5.07
2018-06-03T02:08:40.452Z,6.23
2018-06-03T02:11:09.024Z,5.77
2018-06-03T02:13:37.597Z,5.33
2018-06-03T02:16:06.208Z,5.50
2018-06-03T02:18:34.816Z,5.47
2018-06-03T02:21:03.636Z,5.00
2018-06-03T02:23:32.196Z,5.30
2018-06-03T02:26:00.787Z,5.37
2018-06-03T02:28:29.363Z,5.30
2018-06-03T02:30:57.941Z,5.00
2018-06-03T02:33:26.537Z,4.47
2018-06-03T02:35:55.096Z,5.13
2018-06-03T02:38:23.676Z,5.13
2018-06-03T02:40:52.260Z,5.83
2018-06-03T02:43:20.912Z,5.50
2018-06-03T02:45:49.521Z,6.17
2018-06-03T02:48:18.120Z,5.77
2018-06-03T02:50:46.704Z,5.50
2018-06-03T02:53:15.349Z,5.20
2018-06-03T02:55:43.940Z,5.07
2018-06-03T02:58:12.551Z,5.43
2018-06-03T03:00:41.198Z,5.30
2018-06-03T03:03:09.987Z,5.30
2018-06-03T03:05:38.692Z,5.70
2018-06-03T03:08:07.283Z,5.90
2018-06-03T03:10:35.880Z,5.67
2018-06-03T03:13:04.458Z,6.37
2018-06-03T03:15:33.028Z,5.87
2018-06-03T03:18:01.612Z,5.90
2018-06-03T03:20:30.200Z,6.37
2018-06-03T03:22:58.796Z,5.80
2018-06-03T03:25:27.384Z,6.67
2018-06-03T03:27:55.988Z,6.90
2018-06-03T03:30:24.593Z,5.83
2018-06-03T03:32:53.167Z,6.83
2018-06-03T03:35:21.519Z,7.57
2018-06-03T03:37:50.104Z,7.13
2018-06-03T03:40:18.676Z,6.87
2018-06-03T03:42:47.248Z,6.60
2018-06-03T03:45:15.824Z,6.40
2018-06-03T03:47:44.408Z,6.23
2018-06-03T03:50:13.058Z,6.50
2018-06-03T03:52:41.621Z,6.87
2018-06-03T03:55:10.816Z,6.70
2018-06-03T03:57:39.404Z,6.73
2018-06-03T04:00:08.834Z,6.27
2018-06-03T04:02:37.418Z,5.83
2018-06-03T04:05:06.020Z,6.53
2018-06-03T04:07:34.624Z,6.33
2018-06-03T04:10:03.245Z,6.00
2018-06-03T04:12:31.813Z,6.43
2018-06-03T04:15:00.399Z,6.50
2018-06-03T04:17:28.987Z,6.40
2018-06-03T04:19:57.592Z,5.43
2018-06-03T04:22:26.190Z,5.97
2018-06-03T04:24:54.767Z,6.40
2018-06-03T04:27:23.388Z,6.53
2018-06-03T04:29:51.968Z,5.90
2018-06-03T04:32:20.556Z,5.77
2018-06-03T04:34:49.148Z,5.87
2018-06-03T04:37:17.729Z,5.83
2018-06-03T04:39:45.952Z,5.30
2018-06-03T04:42:14.530Z,5.73
2018-06-03T04:44:43.195Z,5.83
2018-06-03T04:47:12.723Z,5.60
2018-06-03T04:49:41.296Z,5.40
2018-06-03T04:52:09.877Z,5.17
2018-06-03T04:54:38.461Z,5.40
2018-06-03T04:57:07.060Z,4.93
2018-06-03T04:59:35.624Z,5.37
2018-06-03T05:02:04.220Z,5.03
2018-06-03T05:04:32.791Z,4.83
2018-06-03T05:07:02.336Z,4.80
2018-06-03T05:09:30.956Z,5.10
2018-06-03T05:11:59.554Z,4.77
2018-06-03T05:14:28.135Z,4.77
2018-06-03T05:16:56.720Z,4.83
2018-06-03T05:19:25.293Z,5.00
2018-06-03T05:21:54.086Z,5.27
2018-06-03T05:24:22.693Z,4.70
2018-06-03T05:26:52.516Z,4.67
2018-06-03T05:29:21.092Z,4.50
2018-06-03T05:31:49.670Z,4.17
2018-06-03T05:34:18.263Z,3.93
2018-06-03T05:36:46.849Z,3.77
2018-06-03T05:39:15.425Z,2.87
2018-06-03T05:41:44.034Z,2.53
2018-06-03T05:44:12.600Z,2.60
2018-06-03T05:46:41.196Z,2.60
2018-06-03T05:49:10.400Z,2.60
2018-06-03T05:51:38.977Z,2.47
2018-06-03T05:54:07.560Z,2.30
2018-06-03T05:56:36.132Z,2.40
2018-06-03T05:59:04.768Z,2.50
2018-06-03T06:01:33.376Z,2.40
2018-06-03T06:04:01.964Z,2.30
2018-06-03T06:06:31.119Z,2.37
2018-06-03T06:08:59.749Z,2.50
2018-06-03T06:11:28.332Z,2.30
2018-06-03T06:13:56.916Z,2.40
2018-06-03T06:16:25.532Z,1.87
2018-06-03T06:18:54.131Z,2.00
2018-06-03T06:21:22.823Z,1.93
2018-06-03T06:23:51.426Z,2.30
2018-06-03T06:26:20.024Z,2.00
2018-06-03T06:28:48.593Z,1.90
2018-06-03T06:31:17.172Z,1.80
2018-06-03T06:33:45.762Z,1.97
2018-06-03T06:36:14.374Z,2.53
2018-06-03T06:38:43.021Z,2.33
2018-06-03T06:41:11.615Z,2.40
2018-06-03T06:43:40.233Z,2.83
2018-06-03T06:46:08.807Z,3.63
2018-06-03T06:48:37.440Z,3.30
2018-06-03T06:51:06.047Z,3.40
2018-06-03T06:53:34.636Z,3.73
2018-06-03T06:56:03.222Z,3.53
2018-06-03T06:58:31.797Z,3.40
2018-06-03T07:01:00.364Z,3.70
2018-06-03T07:03:28.960Z,3.33
2018-06-03T07:05:57.540Z,3.10
2018-06-03T07:08:26.772Z,3.30
2018-06-03T07:10:55.347Z,3.10
2018-06-03T07:13:23.924Z,3.17
2018-06-03T07:15:52.287Z,2.77
2018-06-03T07:18:20.847Z,2.80
2018-06-03T07:20:49.409Z,3.00
2018-06-03T07:23:17.993Z,3.03
2018-06-03T07:25:46.573Z,2.77
2018-06-03T07:28:15.168Z,3.00
2018-06-03T07:30:43.739Z,3.10
2018-06-03T07:33:12.348Z,3.17
2018-06-03T07:35:40.925Z,3.07
2018-06-03T07:38:09.492Z,2.70
2018-06-03T07:40:38.148Z,3.17
2018-06-03T07:43:06.728Z,2.80
2018-06-03T07:45:36.022Z,2.90
2018-06-03T07:48:04.946Z,2.70
2018-06-03T07:50:33.521Z,3.00
2018-06-03T07:53:04.886Z,2.70
2018-06-03T07:55:33.460Z,2.57
2018-06-03T07:58:02.023Z,2.40
2018-06-03T08:00:30.599Z,2.30
2018-06-03T08:02:59.161Z,2.80
2018-06-03T08:05:27.786Z,2.57
2018-06-03T08:07:56.361Z,2.50
2018-06-03T08:10:24.979Z,2.50
2018-06-03T08:12:53.544Z,2.53
2018-06-03T08:15:22.126Z,2.60
2018-06-03T08:17:50.740Z,2.70
2018-06-03T08:20:19.084Z,3.07
2018-06-03T08:22:47.713Z,2.40
2018-06-03T08:25:16.270Z,2.40
2018-06-03T08:27:44.855Z,2.37
2018-06-03T08:30:13.472Z,2.50
2018-06-03T08:32:42.028Z,2.40
2018-06-03T08:35:10.610Z,1.93
2018-06-03T08:37:39.227Z,2.13
2018-06-03T08:40:07.805Z,2.30
2018-06-03T08:42:36.512Z,2.50
2018-06-03T08:45:05.169Z,2.30
2018-06-03T08:47:33.728Z,2.27
2018-06-03T08:50:02.053Z,2.30
2018-06-03T08:52:30.765Z,2.40
2018-06-03T08:54:59.359Z,2.30
2018-06-03T08:57:27.979Z,2.20
2018-06-03T08:59:56.533Z,2.40
2018-06-03T09:02:25.112Z,2.23
2018-06-03T09:04:53.708Z,2.30
2018-06-03T09:07:22.515Z,2.20
2018-06-03T09:09:51.080Z,2.43
2018-06-03T09:12:19.691Z,2.47
2018-06-03T09:14:48.284Z,2.63
2018-06-03T09:17:17.052Z,2.53
2018-06-03T09:19:45.648Z,2.67
2018-06-03T09:22:14.211Z,2.50
2018-06-03T09:24:42.786Z,2.53
2018-06-03T09:27:11.392Z,2.37
2018-06-03T09:29:39.976Z,2.50
2018-06-03T09:32:08.821Z,2.20
2018-06-03T09:34:37.439Z,2.13
2018-06-03T09:37:05.996Z,2.33
2018-06-03T09:39:34.579Z,2.53
2018-06-03T09:42:03.250Z,2.23
2018-06-03T09:44:31.805Z,2.10
2018-06-03T09:47:00.368Z,2.10
2018-06-03T09:49:28.930Z,2.20
2018-06-03T09:51:57.533Z,1.90
2018-06-03T09:54:26.109Z,2.07
2018-06-03T09:56:54.688Z,1.90
2018-06-03T09:59:23.290Z,2.10
2018-06-03T10:01:51.861Z,2.20
2018-06-03T10:04:20.473Z,1.90
2018-06-03T10:06:49.589Z,1.80
2018-06-03T10:09:18.159Z,1.70
2018-06-03T10:11:46.749Z,1.80
2018-06-03T10:14:15.316Z,1.40
2018-06-03T10:16:43.667Z,1.60
2018-06-03T10:19:12.229Z,1.70
2018-06-03T10:21:40.795Z,1.60
2018-06-03T10:24:09.368Z,1.57
2018-06-03T10:26:37.940Z,1.80
2018-06-03T10:29:06.552Z,1.80
2018-06-03T10:31:35.110Z,2.00
2018-06-03T10:34:03.688Z,1.90
2018-06-03T10:36:32.248Z,2.40
2018-06-03T10:39:00.575Z,2.00
2018-06-03T10:41:29.211Z,2.80
2018-06-03T10:43:57.809Z,2.77
2018-06-03T10:46:26.384Z,2.50
2018-06-03T10:48:54.956Z,2.87
2018-06-03T10:51:23.511Z,2.50
2018-06-03T10:53:52.116Z,2.60
2018-06-03T10:56:20.444Z,2.80
2018-06-03T10:58:49.036Z,3.10
2018-06-03T11:01:17.598Z,2.77
2018-06-03T11:03:46.489Z,2.80
2018-06-03T11:06:15.093Z,3.27
2018-06-03T11:08:44.477Z,2.97
2018-06-03T11:11:13.077Z,2.97
2018-06-03T11:13:41.648Z,3.03
2018-06-03T11:16:10.216Z,3.03
2018-06-03T11:18:38.815Z,3.20
2018-06-03T11:21:07.384Z,3.17
2018-06-03T11:23:35.960Z,3.23
2018-06-03T11:26:04.555Z,3.00
2018-06-03T11:28:33.118Z,3.50
2018-06-03T11:31:01.716Z,3.43
2018-06-03T11:33:30.295Z,3.83
2018-06-03T11:35:58.869Z,3.60
2018-06-03T11:38:27.441Z,3.60
2018-06-03T11:40:56.025Z,3.83
2018-06-03T11:43:24.637Z,3.50
2018-06-03T11:45:53.197Z,3.13
2018-06-03T11:48:21.793Z,2.83
2018-06-03T11:50:50.361Z,2.67
2018-06-03T11:53:18.950Z,2.83
2018-06-03T11:55:47.536Z,2.70
2018-06-03T11:58:54.243Z,3.00
2018-06-03T12:01:23.595Z,3.00
2018-06-03T12:03:52.216Z,2.80
2018-06-03T12:06:20.791Z,2.63
2018-06-03T12:08:49.376Z,2.77
2018-06-03T12:11:17.953Z,3.00
2018-06-03T12:13:46.565Z,3.30
2018-06-03T12:16:15.136Z,3.00
2018-06-03T12:18:43.708Z,3.13
2018-06-03T12:21:12.267Z,3.37
2018-06-03T12:23:40.835Z,3.43
2018-06-03T12:26:09.436Z,3.60
2018-06-03T12:28:38.055Z,3.00
2018-06-03T12:31:06.599Z,3.03
2018-06-03T12:33:35.204Z,3.50
2018-06-03T12:36:03.827Z,3.00
2018-06-03T12:38:32.430Z,3.30
2018-06-03T12:41:00.999Z,3.03
2018-06-03T12:43:29.622Z,2.90
2018-06-03T12:45:58.193Z,3.50
2018-06-03T12:48:26.775Z,3.30
2018-06-03T12:50:55.368Z,3.00
2018-06-03T12:53:24.216Z,3.27
2018-06-03T12:55:52.785Z,3.20
2018-06-03T12:58:21.364Z,3.30
2018-06-03T13:00:49.948Z,3.50
2018-06-03T13:03:18.544Z,3.27
2018-06-03T13:05:47.104Z,3.00
2018-06-03T13:08:15.424Z,3.20
2018-06-03T13:10:44.000Z,3.20
2018-06-03T13:13:12.582Z,3.00
2018-06-03T13:15:41.192Z,3.43
2018-06-03T13:18:09.820Z,3.20
2018-06-03T13:20:38.369Z,3.10
2018-06-03T13:23:06.940Z,3.20
2018-06-03T13:25:35.552Z,3.20
2018-06-03T13:28:04.142Z,3.13
2018-06-03T13:30:32.700Z,3.40
2018-06-03T13:33:01.272Z,3.50
2018-06-03T13:35:29.866Z,3.30
2018-06-03T13:37:58.496Z,3.03
2018-06-03T13:40:27.116Z,3.17
2018-06-03T13:42:55.687Z,3.30
2018-06-03T13:45:24.313Z,3.20
2018-06-03T13:47:52.928Z,2.90
2018-06-03T13:50:21.480Z,3.10
2018-06-03T13:52:50.049Z,3.40
2018-06-03T13:55:18.643Z,3.13
2018-06-03T13:57:47.208Z,2.77
2018-06-03T14:00:15.824Z,3.30
2018-06-03T14:02:44.386Z,3.10
2018-06-03T14:05:12.968Z,2.87
2018-06-03T14:07:41.528Z,3.10
2018-06-03T14:10:11.112Z,3.10
2018-06-03T14:12:39.700Z,3.20
2018-06-03T14:15:08.272Z,2.80
2018-06-03T14:17:36.832Z,2.80
2018-06-03T14:20:05.416Z,3.00
2018-06-03T14:22:33.994Z,2.93
2018-06-03T14:25:02.596Z,3.10
2018-06-03T14:27:31.168Z,2.80
2018-06-03T14:29:59.946Z,3.10
2018-06-03T14:32:28.532Z,2.77
2018-06-03T14:34:57.128Z,3.33
2018-06-03T14:37:25.713Z,3.20
2018-06-03T14:39:54.284Z,3.40
2018-06-03T14:42:22.872Z,3.33
2018-06-03T14:44:51.449Z,3.37
2018-06-03T14:47:20.012Z,3.50
2018-06-03T14:49:48.602Z,3.47
2018-06-03T14:52:17.182Z,3.70
2018-06-03T14:54:45.872Z,3.70
2018-06-03T14:57:14.440Z,4.23
2018-06-03T14:59:45.627Z,4.07
2018-06-03T15:02:14.439Z,4.47
2018-06-03T15:04:43.013Z,4.40
2018-06-03T15:07:11.584Z,4.30
2018-06-03T15:09:40.177Z,4.13
2018-06-03T15:14:45.018Z,4.17
2018-06-03T15:17:13.589Z,4.20
2018-06-03T15:19:42.180Z,3.97
2018-06-03T15:22:10.765Z,4.17
2018-06-03T15:24:40.192Z,4.20
2018-06-03T15:27:08.860Z,4.07
2018-06-03T15:29:37.177Z,4.63
2018-06-03T15:32:05.777Z,4.17
2018-06-03T15:34:34.396Z,4.13
2018-06-03T15:37:03.630Z,4.33
2018-06-03T15:39:32.223Z,4.73
2018-06-03T15:42:00.808Z,4.30
2018-06-03T15:44:29.393Z,4.50
2018-06-03T15:46:57.964Z,4.83
2018-06-03T15:49:26.549Z,5.07
2018-06-03T15:51:55.168Z,4.93
2018-06-03T15:54:23.736Z,4.83
2018-06-03T15:56:52.348Z,4.53
2018-06-03T15:59:20.930Z,5.00
2018-06-03T16:01:49.648Z,5.30
2018-06-03T16:04:18.248Z,5.30
2018-06-03T16:06:46.809Z,5.50
2018-06-03T16:09:15.409Z,5.40
2018-06-03T16:11:44.024Z,5.27
2018-06-03T16:14:12.588Z,5.33
2018-06-03T16:16:41.871Z,5.00
2018-06-03T16:19:10.515Z,5.03
2018-06-03T16:21:39.065Z,5.00
2018-06-03T16:24:09.128Z,4.47
2018-06-03T16:26:37.896Z,4.60
2018-06-03T16:29:06.685Z,4.70
2018-06-03T16:31:35.265Z,4.83
2018-06-03T16:34:03.874Z,5.23
2018-06-03T16:36:32.509Z,5.77
2018-06-03T16:39:01.087Z,6.10
2018-06-03T16:41:29.717Z,5.30
2018-06-03T16:43:58.301Z,5.43
2018-06-03T16:46:26.872Z,5.17
2018-06-03T16:48:55.203Z,5.67
2018-06-03T16:51:23.792Z,5.40
2018-06-03T16:53:52.399Z,6.00
2018-06-03T16:56:20.972Z,5.80
2018-06-03T16:58:50.541Z,6.13
2018-06-03T17:01:19.113Z,6.40
2018-06-03T17:03:47.720Z,5.50
2018-06-03T17:06:16.321Z,5.60
2018-06-03T17:08:44.909Z,6.07
2018-06-03T17:11:13.478Z,5.57
2018-06-03T17:13:42.044Z,5.40
2018-06-03T17:16:10.613Z,5.60
2018-06-03T17:18:39.205Z,5.20
2018-06-03T17:21:07.784Z,5.90
2018-06-03T17:23:36.409Z,5.50
2018-06-03T17:26:04.647Z,5.57
2018-06-03T17:28:33.222Z,5.63
2018-06-03T17:31:01.850Z,6.13
2018-06-03T17:33:30.187Z,5.83
2018-06-03T17:35:59.820Z,6.00
2018-06-03T17:38:29.282Z,5.73
2018-06-03T17:40:57.950Z,6.00
2018-06-03T17:43:26.564Z,6.23
2018-06-03T17:45:58.512Z,5.83
2018-06-03T17:48:27.284Z,6.67
2018-06-03T17:50:55.858Z,6.27
2018-06-03T17:53:24.433Z,6.83
2018-06-03T17:55:53.016Z,7.00
2018-06-03T17:58:21.588Z,5.80
2018-06-03T18:00:50.147Z,6.33
2018-06-03T18:03:18.908Z,6.77
2018-06-03T18:05:47.527Z,7.00
2018-06-03T18:08:16.276Z,6.50
2018-06-03T18:10:44.845Z,6.47
2018-06-03T18:13:13.426Z,6.47
2018-06-03T18:15:41.993Z,6.43
2018-06-03T18:18:10.625Z,6.23
2018-06-03T18:20:39.204Z,6.00
2018-06-03T18:23:07.808Z,5.73
2018-06-03T18:25:36.400Z,6.17
2018-06-03T18:28:05.054Z,6.73
2018-06-03T18:30:33.632Z,6.50
2018-06-03T18:33:02.192Z,6.30
2018-06-03T18:35:31.053Z,7.00
2018-06-03T18:37:59.649Z,7.17
2018-06-03T18:40:28.286Z,6.10
2018-06-03T18:42:56.896Z,6.63
2018-06-03T18:45:25.488Z,7.63
2018-06-03T18:47:54.153Z,7.30
2018-06-03T18:50:22.968Z,7.33
2018-06-03T18:52:51.570Z,9.23
2018-06-03T18:55:20.200Z,7.70
2018-06-03T18:57:48.780Z,9.00
2018-06-03T19:00:17.356Z,9.73
2018-06-03T19:05:23.383Z,8.80
2018-06-03T19:07:51.994Z,8.77
2018-06-03T19:10:20.565Z,8.47
2018-06-03T19:12:49.184Z,9.43
2018-06-03T19:15:17.744Z,8.93
2018-06-03T19:17:46.313Z,9.70
2018-06-03T19:20:14.937Z,10.13
2018-06-03T19:22:43.528Z,8.83
2018-06-03T19:25:12.112Z,10.50
2018-06-03T19:27:40.688Z,9.50
2018-06-03T19:30:09.274Z,10.57
2018-06-03T19:32:37.856Z,9.73
2018-06-03T19:35:06.463Z,9.33
2018-06-03T19:37:36.232Z,11.37
2018-06-03T19:40:04.876Z,9.47
2018-06-03T19:42:33.597Z,10.10
2018-06-03T19:45:02.200Z,10.30
2018-06-03T19:47:30.759Z,9.53
2018-06-03T19:49:59.326Z,9.07
2018-06-03T19:52:27.977Z,9.53
2018-06-03T19:54:56.556Z,10.20
2018-06-03T19:57:25.144Z,10.50
2018-06-03T19:59:53.770Z,11.63
2018-06-03T20:02:23.221Z,10.77
2018-06-03T20:04:51.805Z,10.70
2018-06-03T20:07:20.400Z,10.60
2018-06-03T20:09:48.984Z,10.73
2018-06-03T20:12:17.623Z,10.87
2018-06-03T20:14:45.928Z,11.07
2018-06-03T20:17:14.504Z,11.07
2018-06-03T20:19:43.146Z,11.17
2018-06-03T20:22:11.777Z,10.13
2018-06-03T20:24:40.373Z,10.90
2018-06-03T20:27:08.933Z,10.60
2018-06-03T20:29:37.504Z,11.57
2018-06-03T20:32:06.093Z,11.80
2018-06-03T20:34:34.699Z,10.17
2018-06-03T20:37:03.270Z,10.77
2018-06-03T20:39:31.896Z,12.07
2018-06-03T20:42:00.232Z,12.17
2018-06-03T20:44:28.805Z,12.47
2018-06-03T20:46:57.405Z,11.20
2018-06-03T20:49:25.977Z,11.07
2018-06-03T20:51:54.591Z,10.13
2018-06-03T20:54:23.156Z,10.97
2018-06-03T20:56:51.805Z,11.10
2018-06-03T20:59:20.404Z,11.37
2018-06-03T21:01:48.985Z,10.57
2018-06-03T21:04:17.570Z,11.37
2018-06-03T21:06:46.144Z,11.47
2018-06-03T21:09:14.716Z,11.70
2018-06-03T21:11:43.332Z,12.47
2018-06-03T21:14:11.916Z,12.80
2018-06-03T21:16:40.506Z,11.40
2018-06-03T21:19:09.089Z,13.30
2018-06-03T21:21:37.673Z,12.33
2018-06-03T21:24:06.268Z,14.07
2018-06-03T21:26:34.871Z,13.90
2018-06-03T21:29:03.115Z,13.93
2018-06-03T21:31:31.684Z,14.30
2018-06-03T21:34:00.449Z,13.60
2018-06-03T21:36:29.046Z,12.10
2018-06-03T21:38:57.648Z,10.67
2018-06-03T21:41:25.991Z,11.80
2018-06-03T21:43:54.564Z,13.30
2018-06-03T21:46:23.156Z,10.97
2018-06-03T21:48:51.753Z,11.70
2018-06-03T21:51:20.344Z,13.60
2018-06-03T21:53:48.919Z,11.60
2018-06-03T21:56:17.509Z,11.47
2018-06-03T21:58:46.096Z,12.40
2018-06-03T22:01:14.697Z,13.90
2018-06-03T22:03:43.268Z,11.33
2018-06-03T22:06:11.831Z,11.93
2018-06-03T22:08:40.416Z,12.50
2018-06-03T22:11:08.996Z,13.13
2018-06-03T22:13:37.601Z,12.33
2018-06-03T22:16:06.248Z,13.00
2018-06-03T22:18:34.836Z,11.80
2018-06-03T22:21:03.416Z,10.97
2018-06-03T22:23:32.040Z,12.20
2018-06-03T22:26:00.645Z,12.20
2018-06-03T22:28:29.259Z,12.27
2018-06-03T22:30:57.843Z,11.13
2018-06-03T22:33:26.410Z,10.93
2018-06-03T22:35:54.984Z,9.73
2018-06-03T22:38:23.584Z,9.57
2018-06-03T22:40:52.208Z,10.17
2018-06-03T22:43:20.771Z,10.10
2018-06-03T22:45:49.364Z,8.73
2018-06-03T22:48:17.952Z,9.93
2018-06-03T22:50:46.512Z,9.87
2018-06-03T22:53:15.100Z,9.63
2018-06-03T22:55:43.668Z,9.37
2018-06-03T22:58:12.257Z,9.30
2018-06-03T23:00:40.892Z,9.37
2018-06-03T23:03:16.360Z,9.80
2018-06-03T23:05:44.933Z,8.23
2018-06-03T23:08:13.524Z,9.37
2018-06-03T23:10:42.120Z,8.87
2018-06-03T23:13:10.707Z,9.17
2018-06-03T23:15:39.281Z,10.30
2018-06-03T23:18:07.872Z,8.53
2018-06-03T23:20:36.456Z,9.93
2018-06-03T23:23:05.083Z,8.70
2018-06-03T23:25:33.849Z,9.37
2018-06-03T23:28:02.440Z,8.80
2018-06-03T23:30:31.377Z,8.97
2018-06-03T23:32:59.943Z,9.30
2018-06-03T23:35:28.564Z,8.60
2018-06-03T23:37:57.188Z,8.67
2018-06-03T23:40:25.761Z,7.57
2018-06-03T23:42:55.171Z,8.70
2018-06-03T23:45:23.741Z,9.03
2018-06-03T23:47:52.326Z,8.50
2018-06-03T23:50:20.894Z,9.93
2018-06-03T23:52:49.462Z,8.60
2018-06-03T23:55:18.032Z,8.27
2018-06-03T23:57:46.604Z,9.23
